Time;durP1;ratioP1;P1;durP2;ratioP2;P2;SDS_P1;SDS_P2;PMS_P1;PMS_P2;Temp;Humidity;BMP_temperature;BMP_pressure;BME280_temperature;BME280_humidity;BME280_pressure;Samples;Min_cycle;Max_cycle;Signal;HPM_P1;HPM_P2
2022/01/30 00:02:03;;;;;;;6.90;5.60;;;;;;;-0.25;55.76;95359.19;5109253;28;20203;-67
2022/01/30 00:04:30;;;;;;;6.63;5.87;;;;;;;-0.20;55.46;95361.88;5076571;28;20200;-67
2022/01/30 00:06:58;;;;;;;7.22;6.35;;;;;;;-0.19;55.06;95358.06;5109594;28;20220;-67
2022/01/30 00:09:24;;;;;;;6.80;5.93;;;;;;;-0.18;55.11;95353.44;5075688;28;20204;-67
2022/01/30 00:11:55;;;;;;;6.90;6.07;;;;;;;-0.21;55.31;95352.13;5075469;28;20651;-67
2022/01/30 00:14:24;;;;;;;7.47;6.27;;;;;;;-0.27;55.00;95348.63;5109598;28;20292;-67
2022/01/30 00:16:58;;;;;;;6.97;6.00;;;;;;;-0.34;55.27;95344.59;5075657;28;20185;-67
2022/01/30 00:19:31;;;;;;;8.60;6.37;;;;;;;-0.38;55.47;95348.94;5108751;28;20300;-67
2022/01/30 00:22:13;;;;;;;6.93;5.80;;;;;;;-0.42;55.49;95343.25;5076273;28;20223;-67
2022/01/30 00:24:47;;;;;;;7.68;5.65;;;;;;;-0.46;55.34;95328.66;5109671;28;20292;-67
2022/01/30 00:27:18;;;;;;;7.05;5.40;;;;;;;-0.49;55.39;95323.78;5075825;28;20207;-67
2022/01/30 00:29:45;;;;;;;6.22;5.72;;;;;;;-0.49;55.54;95324.59;5076084;28;20189;-67
2022/01/30 00:32:11;;;;;;;6.15;5.65;;;;;;;-0.47;55.39;95318.06;5075084;28;20209;-67
2022/01/30 00:34:38;;;;;;;5.65;5.15;;;;;;;-0.52;55.48;95308.88;5075764;28;20194;-67
2022/01/30 00:37:07;;;;;;;5.30;4.80;;;;;;;-0.50;55.45;95311.31;5108879;28;20193;-67
2022/01/30 00:39:33;;;;;;;5.50;5.00;;;;;;;-0.45;55.67;95318.63;5075523;28;20653;-67
2022/01/30 00:42:00;;;;;;;5.75;4.97;;;;;;;-0.44;55.71;95312.91;5075845;28;20189;-67
2022/01/30 00:44:27;;;;;;;5.97;5.40;;;;;;;-0.45;55.63;95314.00;5075772;28;20185;-67
2022/01/30 00:46:55;;;;;;;5.82;5.10;;;;;;;-0.46;55.58;95314.28;5075780;28;20511;-67
2022/01/30 00:49:21;;;;;;;5.78;5.28;;;;;;;-0.49;55.41;95313.75;5075359;28;20257;-67
2022/01/30 00:51:48;;;;;;;6.18;5.57;;;;;;;-0.53;55.91;95306.44;5108581;28;20193;-67
2022/01/30 00:54:16;;;;;;;6.38;5.63;;;;;;;-0.58;55.87;95307.28;5075885;28;20208;-67
2022/01/30 00:56:43;;;;;;;6.72;5.57;;;;;;;-0.58;56.21;95298.31;5075548;28;20197;-67
2022/01/30 00:59:10;;;;;;;6.00;5.22;;;;;;;-0.59;56.16;95294.00;5075476;28;20216;-67
2022/01/30 01:01:37;;;;;;;5.63;5.13;;;;;;;-0.57;55.88;95291.84;5075604;28;20268;-67
2022/01/30 01:04:04;;;;;;;6.35;5.50;;;;;;;-0.58;55.79;95279.38;5108362;28;20193;-67
2022/01/30 01:06:31;;;;;;;5.80;5.30;;;;;;;-0.62;56.28;95278.31;5074714;28;20185;-67
2022/01/30 01:09:01;;;;;;;6.45;5.70;;;;;;;-0.67;56.06;95276.44;5075458;28;20177;-67
2022/01/30 01:12:05;;;;;;;7.27;6.57;;;;;;;-0.75;56.20;95280.53;5075111;28;20255;-67
2022/01/30 01:25:24;;;;;;;6.57;5.97;;;;;;;-1.12;57.42;95255.75;5073963;28;20201;-67
2022/01/30 01:27:52;;;;;;;7.00;6.40;;;;;;;-1.12;57.37;95245.72;5108017;28;20518;-67
2022/01/30 01:30:19;;;;;;;8.27;7.30;;;;;;;-1.14;57.26;95241.66;5074449;28;20197;-67
2022/01/30 01:32:45;;;;;;;8.80;7.33;;;;;;;-1.23;58.00;95238.72;5074685;28;20537;-67
2022/01/30 01:35:12;;;;;;;8.40;7.60;;;;;;;-1.21;57.77;95239.22;5108196;28;20240;-67
2022/01/30 01:37:39;;;;;;;10.10;8.60;;;;;;;-1.28;57.81;95234.09;5108066;28;20205;-67
2022/01/30 01:40:07;;;;;;;10.90;7.87;;;;;;;-1.35;57.79;95224.66;5074984;28;20296;-67
2022/01/30 01:42:35;;;;;;;9.60;8.47;;;;;;;-1.33;57.90;95228.72;5074741;28;20193;-67
2022/01/30 01:45:04;;;;;;;10.03;8.07;;;;;;;-1.32;57.55;95221.41;5107909;28;20225;-67
2022/01/30 01:47:33;;;;;;;10.87;8.30;;;;;;;-1.33;57.96;95219.78;5074784;28;20193;-67
2022/01/30 01:50:00;;;;;;;11.13;8.73;;;;;;;-1.36;57.70;95213.00;5074095;28;20611;-67
2022/01/30 01:52:27;;;;;;;12.17;8.80;;;;;;;-1.38;58.31;95217.06;5074971;28;20189;-67
2022/01/30 01:54:56;;;;;;;12.55;9.52;;;;;;;-1.36;58.19;95212.22;5107860;28;20254;-67
2022/01/30 01:57:24;;;;;;;11.37;9.70;;;;;;;-1.41;57.92;95204.94;5074657;28;20649;-67
2022/01/30 01:59:51;;;;;;;12.77;9.93;;;;;;;-1.41;58.23;95212.22;5074752;28;20197;-67
2022/01/30 02:02:20;;;;;;;13.37;10.50;;;;;;;-1.45;58.55;95203.84;5074637;28;20189;-67
2022/01/30 02:04:47;;;;;;;13.93;10.13;;;;;;;-1.42;58.50;95200.56;5074384;28;20632;-67
2022/01/30 02:10:21;;;;;;;15.77;11.13;;;;;;;-1.50;58.23;95203.84;5053236;28;20193;-67
2022/01/30 02:12:51;;;;;;;14.50;10.40;;;;;;;-1.48;57.99;95212.50;5036169;28;20207;-67
2022/01/30 02:15:45;;;;;;;13.75;10.25;;;;;;;-1.44;58.01;95212.78;5053858;28;20276;-68
2022/01/30 02:24:04;;;;;;;13.73;9.87;;;;;;;-1.44;57.85;95216.28;5073302;28;20588;-66
2022/01/30 02:26:36;;;;;;;10.37;8.70;;;;;;;-1.53;57.90;95202.50;5074394;28;20593;-66
2022/01/30 02:29:03;;;;;;;12.35;8.82;;;;;;;-1.48;57.84;95202.50;5074685;28;20383;-66
2022/01/30 02:31:34;;;;;;;12.07;8.90;;;;;;;-1.49;58.14;95191.94;5073757;28;20208;-66
2022/01/30 02:34:01;;;;;;;12.98;9.65;;;;;;;-1.48;57.84;95182.75;5074344;28;20177;-66
2022/01/30 02:36:28;;;;;;;12.45;9.60;;;;;;;-1.51;58.20;95186.81;5074544;28;20241;-66
2022/01/30 02:38:58;;;;;;;12.07;9.43;;;;;;;-1.51;57.65;95178.69;5074113;28;20188;-66
2022/01/30 02:41:25;;;;;;;11.75;9.13;;;;;;;-1.55;58.27;95166.81;5074512;28;20194;-66
2022/01/30 02:44:05;;;;;;;11.32;8.80;;;;;;;-1.55;58.03;95147.88;5076419;28;20193;-66
2022/01/30 02:46:35;;;;;;;9.95;8.30;;;;;;;-1.55;58.01;95149.75;5078028;28;20188;-66
2022/01/30 02:49:13;;;;;;;11.13;8.80;;;;;;;-1.58;58.40;95156.53;5077324;28;20208;-66
2022/01/30 02:51:47;;;;;;;11.55;8.65;;;;;;;-1.61;58.51;95145.44;5077197;28;20192;-66
2022/01/30 02:54:15;;;;;;;10.00;8.10;;;;;;;-1.63;58.20;95142.22;5078605;28;20197;-66
2022/01/30 02:56:42;;;;;;;9.90;8.52;;;;;;;-1.70;58.45;95145.22;5076956;28;20201;-66
2022/01/30 02:59:10;;;;;;;13.38;9.73;;;;;;;-1.71;58.92;95130.03;5078009;28;20238;-66
2022/01/30 03:01:37;;;;;;;11.20;9.18;;;;;;;-1.72;58.72;95133.84;5076960;28;20204;-66
2022/01/30 03:04:04;;;;;;;11.93;9.00;;;;;;;-1.73;58.75;95133.03;5110624;28;20193;-66
2022/01/30 03:06:31;;;;;;;11.38;8.95;;;;;;;-1.81;59.29;95128.19;5077778;28;20196;-66
2022/01/30 03:08:58;;;;;;;9.55;8.20;;;;;;;-1.84;59.00;95136.84;5077672;28;20192;-66
2022/01/30 03:11:26;;;;;;;9.25;8.25;;;;;;;-1.82;58.94;95131.94;5076740;28;20203;-66
2022/01/30 03:13:52;;;;;;;10.70;8.77;;;;;;;-1.84;58.95;95139.53;5077540;28;20186;-66
2022/01/30 03:16:20;;;;;;;11.07;9.20;;;;;;;-1.87;59.02;95139.28;5076971;28;20204;-66
2022/01/30 03:18:47;;;;;;;12.38;9.38;;;;;;;-1.82;58.97;95147.38;5077494;28;20181;-66
2022/01/30 03:21:14;;;;;;;11.50;8.80;;;;;;;-1.83;58.99;95151.16;5076588;28;20228;-66
2022/01/30 03:23:41;;;;;;;7.85;7.07;;;;;;;-1.83;58.82;95137.66;5077461;28;20193;-66
2022/01/30 03:26:09;;;;;;;8.02;7.22;;;;;;;-1.77;58.61;95155.50;5110128;28;20192;-66
2022/01/30 03:28:39;;;;;;;9.68;7.90;;;;;;;-1.72;58.55;95139.25;5077311;28;20191;-66
2022/01/30 03:31:08;;;;;;;8.50;7.60;;;;;;;-1.73;58.45;95145.75;5077224;28;20285;-66
2022/01/30 03:33:35;;;;;;;7.53;6.63;;;;;;;-1.80;58.65;95132.50;5076336;28;20317;-66
2022/01/30 03:36:02;;;;;;;7.78;6.97;;;;;;;-1.75;58.52;95143.31;5109951;28;20236;-66
2022/01/30 03:38:29;;;;;;;7.95;7.15;;;;;;;-1.74;58.21;95144.94;5077152;28;20192;-66
2022/01/30 03:40:56;;;;;;;7.50;6.65;;;;;;;-1.76;58.62;95140.88;5076173;28;20220;-66
2022/01/30 03:43:23;;;;;;;7.65;6.85;;;;;;;-1.78;58.55;95148.44;5076092;28;20197;-66
2022/01/30 03:45:51;;;;;;;8.70;7.43;;;;;;;-1.81;58.35;95154.41;5076899;28;20196;-66
2022/01/30 03:48:18;;;;;;;9.57;7.63;;;;;;;-1.82;58.40;95145.47;5076025;28;20625;-66
2022/01/30 03:50:46;;;;;;;9.50;7.88;;;;;;;-1.82;58.55;95144.66;5076343;28;20576;-66
2022/01/30 03:53:13;;;;;;;8.02;7.28;;;;;;;-1.80;58.42;95156.84;5075938;28;20192;-66
2022/01/30 03:55:40;;;;;;;9.45;8.18;;;;;;;-1.79;58.36;95141.44;5075898;28;20222;-66
2022/01/30 03:58:07;;;;;;;8.10;7.30;;;;;;;-1.85;58.47;95137.94;5076713;28;20192;-66
2022/01/30 04:00:34;;;;;;;10.30;8.23;;;;;;;-1.88;58.73;95132.25;5076617;28;20205;-66
2022/01/30 04:03:02;;;;;;;9.07;8.18;;;;;;;-1.89;58.58;95122.50;5076700;28;20260;-66
2022/01/30 04:05:29;;;;;;;10.20;8.55;;;;;;;-1.90;58.63;95116.28;5076695;28;20189;-66
2022/01/30 04:08:02;;;;;;;8.93;8.00;;;;;;;-1.89;58.83;95104.38;5075613;28;20200;-66
2022/01/30 04:10:29;;;;;;;11.80;8.77;;;;;;;-1.89;58.85;95106.28;5076463;28;20247;-66
2022/01/30 04:12:56;;;;;;;9.48;8.57;;;;;;;-1.94;58.95;95102.50;5076502;28;20197;-66
2022/01/30 04:15:23;;;;;;;9.68;8.70;;;;;;;-2.02;58.75;95108.47;5075404;28;20193;-66
2022/01/30 04:17:50;;;;;;;10.27;8.50;;;;;;;-2.03;58.70;95104.16;5075332;28;20511;-66
2022/01/30 04:20:19;;;;;;;10.70;9.60;;;;;;;-2.11;58.65;95087.69;5076387;28;20213;-66
2022/01/30 04:22:46;;;;;;;10.02;9.02;;;;;;;-2.20;59.02;95074.72;5076306;28;20204;-66
2022/01/30 04:25:13;;;;;;;11.80;8.95;;;;;;;-2.19;59.01;95059.31;5076223;28;20202;-66
2022/01/30 04:27:39;;;;;;;10.00;9.00;;;;;;;-2.13;59.01;95062.84;5076101;28;20189;-66
2022/01/30 04:30:09;;;;;;;10.23;9.05;;;;;;;-2.12;58.92;95059.84;5075815;28;20192;-66
2022/01/30 04:32:41;;;;;;;9.83;8.83;;;;;;;-2.14;58.99;95048.53;5076639;28;20272;-66
2022/01/30 04:35:13;;;;;;;12.17;10.47;;;;;;;-2.13;59.59;95043.91;5075669;28;20244;-66
2022/01/30 04:37:55;;;;;;;13.13;11.73;;;;;;;-2.20;59.79;95044.19;5075118;28;20200;-66
2022/01/30 04:41:01;;;;;;;14.43;12.10;;;;;;;-2.23;58.69;95048.25;5075499;28;20267;-66
2022/01/30 04:52:17;;;;;;;11.13;9.93;;;;;;;-1.74;57.91;95042.19;5074808;28;20196;-66
2022/01/30 04:55:34;;;;;;;11.20;10.00;;;;;;;-1.85;58.61;95059.53;5075400;28;20195;-66
2022/01/30 04:58:01;;;;;;;11.50;10.40;;;;;;;-1.94;58.80;95078.19;5075352;28;20287;-66
2022/01/30 05:00:53;;;;;;;12.50;11.27;;;;;;;-2.01;58.88;95077.66;5074813;28;20220;-66
2022/01/30 05:03:38;;;;;;;12.35;11.05;;;;;;;-2.07;59.71;95086.03;5075475;28;20189;-66
2022/01/30 05:06:09;;;;;;;12.48;11.27;;;;;;;-2.13;59.74;95077.16;5074770;28;20195;-66
2022/01/30 05:08:36;;;;;;;13.32;11.90;;;;;;;-2.21;59.91;95062.31;5075363;28;20201;-66
2022/01/30 05:11:07;;;;;;;12.25;11.15;;;;;;;-2.09;60.29;95042.28;5074801;28;20203;-66
2022/01/30 05:13:36;;;;;;;11.88;10.73;;;;;;;-2.01;59.83;95036.31;5074614;28;20193;-66
2022/01/30 05:16:03;;;;;;;11.52;10.38;;;;;;;-1.92;59.66;95015.75;5075247;28;20216;-66
2022/01/30 05:18:32;;;;;;;11.40;10.30;;;;;;;-1.86;59.46;95008.41;5075531;28;20192;-66
2022/01/30 05:20:59;;;;;;;11.45;10.40;;;;;;;-1.86;59.54;95000.31;5075214;28;20205;-66
2022/01/30 05:23:27;;;;;;;11.55;10.35;;;;;;;-1.87;59.47;94988.69;5074372;28;20196;-66
2022/01/30 05:25:54;;;;;;;11.77;10.77;;;;;;;-1.76;59.68;94967.81;5075222;28;20193;-66
2022/01/30 05:28:24;;;;;;;11.40;10.30;;;;;;;-1.68;59.83;94972.66;5074510;28;20197;-66
2022/01/30 05:30:51;;;;;;;11.20;10.20;;;;;;;-1.78;59.08;94976.22;5075210;28;20196;-66
2022/01/30 05:33:18;;;;;;;12.02;10.80;;;;;;;-1.86;59.19;94979.47;5074369;28;20199;-66
2022/01/30 05:35:46;;;;;;;11.20;10.10;;;;;;;-1.94;59.46;94993.59;5074730;28;20377;-66
2022/01/30 05:38:13;;;;;;;16.02;14.38;;;;;;;-1.92;60.15;94988.72;5074700;28;20234;-66
2022/01/30 05:40:40;;;;;;;26.98;23.58;;;;;;;-1.90;59.92;95010.06;5074434;28;20213;-66
2022/01/30 05:43:08;;;;;;;34.38;30.00;;;;;;;-1.88;60.48;95032.22;5075157;28;20518;-66
2022/01/30 05:45:39;;;;;;;37.25;31.38;;;;;;;-1.87;60.80;95050.06;5074074;28;20632;-66
2022/01/30 05:48:11;;;;;;;33.42;27.35;;;;;;;-1.90;60.67;95050.59;5074183;28;20213;-66
2022/01/30 05:50:38;;;;;;;31.33;26.83;;;;;;;-1.95;60.34;95044.13;5075015;28;20185;-66
2022/01/30 05:53:05;;;;;;;28.25;24.92;;;;;;;-1.96;60.98;95026.31;5074984;28;20181;-66
2022/01/30 05:55:32;;;;;;;24.48;21.88;;;;;;;-1.89;60.39;95020.59;5073825;28;20201;-66
2022/01/30 05:58:00;;;;;;;23.52;21.00;;;;;;;-1.85;60.13;95015.44;5075096;28;20215;-66
2022/01/30 06:00:27;;;;;;;21.98;19.70;;;;;;;-1.82;60.63;95004.06;5073870;28;20267;-66
2022/01/30 06:02:55;;;;;;;15.40;13.77;;;;;;;-1.79;60.02;95017.84;5073990;28;20193;-67
2022/01/30 06:05:24;;;;;;;14.55;13.05;;;;;;;-1.74;59.93;95007.03;5074884;28;20181;-67
2022/01/30 06:07:52;;;;;;;14.80;13.30;;;;;;;-1.67;60.21;94995.91;5074780;28;20185;-67
2022/01/30 06:10:20;;;;;;;13.65;12.18;;;;;;;-1.64;59.82;94981.81;5075358;28;20260;-67
2022/01/30 06:12:47;;;;;;;13.32;12.13;;;;;;;-1.57;59.64;94968.00;5073839;28;20201;-66
2022/01/30 06:15:14;;;;;;;14.23;12.82;;;;;;;-1.58;60.76;94971.78;5074786;28;20238;-66
2022/01/30 06:17:41;;;;;;;13.45;12.05;;;;;;;-1.57;60.17;94968.00;5073960;28;20189;-66
2022/01/30 06:20:11;;;;;;;13.37;12.03;;;;;;;-1.51;60.18;94947.94;5078195;28;20220;-66
2022/01/30 06:22:38;;;;;;;14.57;13.13;;;;;;;-1.45;60.13;94930.59;5078825;28;20189;-66
2022/01/30 06:25:06;;;;;;;17.58;15.85;;;;;;;-1.43;60.35;94954.66;5078531;28;20192;-66
2022/01/30 06:27:32;;;;;;;16.52;14.90;;;;;;;-1.39;60.05;94953.00;5078483;28;20193;-66
2022/01/30 06:29:59;;;;;;;16.52;14.40;;;;;;;-1.35;59.99;94956.78;5078330;28;20185;-66
2022/01/30 06:32:26;;;;;;;15.50;14.07;;;;;;;-1.30;59.99;94954.06;5078331;28;20204;-66
2022/01/30 06:34:53;;;;;;;38.40;34.37;;;;;;;-1.35;59.89;94948.66;5078094;28;20276;-66
2022/01/30 06:37:22;;;;;;;35.13;31.63;;;;;;;-1.38;60.13;94941.94;5078335;28;20196;-66
2022/01/30 06:39:49;;;;;;;27.73;25.15;;;;;;;-1.44;60.63;94942.25;5077279;28;20196;-66
2022/01/30 06:42:15;;;;;;;20.25;18.25;;;;;;;-1.39;60.67;94953.00;5077177;28;20216;-66
2022/01/30 06:44:44;;;;;;;16.70;15.00;;;;;;;-1.34;60.33;94963.81;5076939;28;20621;-66
2022/01/30 06:47:11;;;;;;;16.33;14.63;;;;;;;-1.34;60.62;94996.28;5076848;28;20193;-66
2022/01/30 06:49:38;;;;;;;18.77;16.98;;;;;;;-1.34;60.77;94999.00;5077175;28;20193;-66
2022/01/30 06:52:06;;;;;;;21.27;19.15;;;;;;;-1.36;61.21;94993.84;5078018;28;20182;-66
2022/01/30 06:54:34;;;;;;;20.48;18.38;;;;;;;-1.36;60.91;94985.72;5077115;28;20201;-66
2022/01/30 06:57:01;;;;;;;14.82;13.52;;;;;;;-1.25;60.33;94959.41;5077804;28;20200;-66
2022/01/30 06:59:28;;;;;;;15.07;13.65;;;;;;;-1.19;60.17;94952.88;5110968;28;20193;-66
2022/01/30 07:01:54;;;;;;;14.30;13.00;;;;;;;-1.10;60.11;94966.63;5076776;28;20221;-66
2022/01/30 07:04:21;;;;;;;14.10;12.77;;;;;;;-1.03;59.71;94959.78;5077315;28;20211;-66
2022/01/30 07:06:48;;;;;;;13.55;12.25;;;;;;;-1.03;59.67;94957.09;5077245;28;20204;-66
2022/01/30 07:09:14;;;;;;;13.75;12.45;;;;;;;-0.95;60.22;94946.75;5076897;28;20201;-66
2022/01/30 07:11:43;;;;;;;12.80;11.60;;;;;;;-0.91;59.98;94948.59;5077602;28;20192;-66
2022/01/30 07:14:09;;;;;;;13.65;12.45;;;;;;;-0.92;59.08;94941.56;5076774;28;20204;-66
2022/01/30 07:16:36;;;;;;;13.13;11.93;;;;;;;-0.90;59.24;94941.31;5076658;28;20197;-66
2022/01/30 07:19:03;;;;;;;15.60;14.27;;;;;;;-0.90;59.71;94941.31;5077181;28;20526;-66
2022/01/30 07:21:30;;;;;;;18.88;17.17;;;;;;;-0.87;59.63;94940.72;5076524;28;20209;-66
2022/01/30 07:23:56;;;;;;;16.13;14.63;;;;;;;-0.76;59.52;94955.81;5076407;28;20197;-66
2022/01/30 07:26:23;;;;;;;14.40;13.05;;;;;;;-0.67;59.00;94956.00;5076940;28;20205;-66
2022/01/30 07:28:51;;;;;;;13.90;12.60;;;;;;;-0.58;59.06;94963.22;5077013;28;20200;-66
2022/01/30 07:31:18;;;;;;;13.15;11.95;;;;;;;-0.58;58.53;94970.50;5077038;28;20196;-66
2022/01/30 07:33:45;;;;;;;12.57;11.40;;;;;;;-0.56;58.43;94963.72;5077170;28;20185;-66
2022/01/30 07:36:13;;;;;;;14.38;12.95;;;;;;;-0.57;57.99;94983.78;5077118;28;20228;-66
2022/01/30 07:38:41;;;;;;;13.05;11.85;;;;;;;-0.57;58.34;94978.38;5076728;28;20200;-66
2022/01/30 07:41:08;;;;;;;11.63;10.43;;;;;;;-0.54;58.04;94980.53;5076680;28;20223;-66
2022/01/30 07:43:35;;;;;;;12.20;11.20;;;;;;;-0.57;58.04;94978.38;5076223;28;20205;-66
2022/01/30 07:46:04;;;;;;;12.70;11.50;;;;;;;-0.52;57.93;94975.59;5076491;28;20201;-66
2022/01/30 07:48:31;;;;;;;12.30;11.15;;;;;;;-0.44;58.33;94974.19;5076568;28;20201;-66
2022/01/30 07:50:58;;;;;;;11.95;10.88;;;;;;;-0.38;57.97;94964.09;5076173;28;20193;-66
2022/01/30 07:53:24;;;;;;;13.32;12.02;;;;;;;-0.24;58.27;94967.75;5075757;28;20196;-66
2022/01/30 07:55:51;;;;;;;13.20;11.63;;;;;;;-0.12;57.51;94961.94;5076761;28;20185;-66
2022/01/30 07:58:18;;;;;;;13.13;11.82;;;;;;;-0.11;56.47;94950.00;5076069;28;20529;-66
2022/01/30 08:00:44;;;;;;;13.98;12.68;;;;;;;-0.12;57.40;94942.97;5076914;28;20202;-66
2022/01/30 08:03:13;;;;;;;13.00;11.77;;;;;;;-0.02;56.93;94940.13;5076410;28;20601;-66
2022/01/30 08:05:40;;;;;;;13.95;12.65;;;;;;;0.15;57.40;94928.81;5076650;28;20268;-66
2022/01/30 08:08:07;;;;;;;13.45;12.05;;;;;;;0.40;56.45;94919.50;5075370;28;20208;-66
2022/01/30 08:10:35;;;;;;;15.00;13.50;;;;;;;0.62;56.37;94914.34;5076524;28;20506;-66
2022/01/30 08:13:02;;;;;;;13.20;11.90;;;;;;;0.72;55.33;94894.38;5075572;28;20212;-66
2022/01/30 08:15:29;;;;;;;14.93;13.00;;;;;;;0.81;55.13;94910.81;5075687;28;20208;-66
2022/01/30 08:17:56;;;;;;;13.75;12.35;;;;;;;0.95;55.42;94906.25;5075300;28;20196;-66
2022/01/30 08:20:26;;;;;;;13.70;12.40;;;;;;;0.92;54.48;94909.53;5075333;28;20208;-66
2022/01/30 08:22:54;;;;;;;13.35;11.98;;;;;;;0.99;54.33;94920.03;5076007;28;20181;-66
2022/01/30 08:25:23;;;;;;;15.50;13.68;;;;;;;0.91;54.20;94919.59;5076285;28;20189;-66
2022/01/30 08:27:51;;;;;;;15.15;13.65;;;;;;;0.87;53.88;94915.88;5075176;28;20200;-66
2022/01/30 08:30:17;;;;;;;16.38;14.02;;;;;;;0.86;53.72;94913.44;5076528;28;20549;-66
2022/01/30 08:32:48;;;;;;;14.25;12.75;;;;;;;0.94;55.02;94932.59;5075191;28;20190;-66
2022/01/30 08:35:16;;;;;;;15.38;13.77;;;;;;;1.13;54.41;94921.69;5074608;28;20235;-66
2022/01/30 08:37:45;;;;;;;15.05;13.60;;;;;;;1.22;54.38;94918.28;5075782;28;20185;-66
2022/01/30 08:40:13;;;;;;;16.60;14.90;;;;;;;1.37;53.74;94909.88;5074707;28;20208;-66
2022/01/30 08:42:40;;;;;;;16.45;14.80;;;;;;;1.52;53.17;94904.16;5075341;28;20568;-66
2022/01/30 08:45:08;;;;;;;15.63;13.93;;;;;;;1.61;52.94;94909.72;5075880;28;20272;-66
2022/01/30 08:47:35;;;;;;;16.77;14.98;;;;;;;1.82;52.68;94927.28;5075468;28;20585;-66
2022/01/30 08:50:03;;;;;;;18.63;14.57;;;;;;;1.98;51.49;94924.25;5075696;28;20181;-66
2022/01/30 08:52:29;;;;;;;17.35;15.55;;;;;;;2.20;52.55;94913.47;5075694;28;20173;-66
2022/01/30 08:54:58;;;;;;;19.25;17.25;;;;;;;2.33;52.16;94906.41;5074927;28;20201;-66
2022/01/30 08:57:24;;;;;;;20.48;18.38;;;;;;;2.49;52.36;94906.88;5075635;28;20185;-66
2022/01/30 08:59:51;;;;;;;22.67;20.38;;;;;;;2.62;51.02;94912.31;5074364;28;20201;-66
2022/01/30 09:02:19;;;;;;;24.95;22.42;;;;;;;2.80;51.53;94910.53;5074697;28;20221;-66
2022/01/30 09:04:46;;;;;;;26.85;23.48;;;;;;;2.91;50.71;94911.09;5075366;28;20181;-66
2022/01/30 09:07:14;;;;;;;27.85;24.92;;;;;;;2.97;51.08;94922.69;5074823;28;20512;-66
2022/01/30 09:09:41;;;;;;;20.35;18.35;;;;;;;3.18;50.80;94914.84;5074137;28;20193;-66
2022/01/30 09:12:09;;;;;;;19.83;17.83;;;;;;;3.21;49.68;94908.75;5074514;28;20193;-66
2022/01/30 09:14:39;;;;;;;17.75;15.95;;;;;;;3.09;48.98;94929.22;5075355;28;20215;-66
2022/01/30 09:17:12;;;;;;;19.90;17.90;;;;;;;3.02;48.77;94923.38;5075322;28;20181;-66
2022/01/30 09:19:38;;;;;;;21.73;18.25;;;;;;;2.99;49.48;94923.19;5074026;28;20209;-66
2022/01/30 09:22:05;;;;;;;20.58;17.95;;;;;;;3.05;49.83;94914.59;5074254;28;20220;-66
2022/01/30 09:24:32;;;;;;;20.65;18.45;;;;;;;3.16;50.40;94920.59;5074485;28;20212;-66
2022/01/30 09:26:59;;;;;;;17.75;15.85;;;;;;;3.21;50.17;94900.59;5074916;28;20480;-66
2022/01/30 09:29:28;;;;;;;18.98;16.27;;;;;;;3.34;49.71;94897.81;5074306;28;20294;-66
2022/01/30 09:31:55;;;;;;;18.60;14.45;;;;;;;3.53;48.91;94888.59;5075187;28;20259;-66
2022/01/30 09:34:22;;;;;;;16.88;14.05;;;;;;;3.77;49.37;94880.03;5075021;28;20178;-66
2022/01/30 09:36:49;;;;;;;14.77;13.23;;;;;;;3.99;48.22;94866.31;5074659;28;20256;-66
2022/01/30 09:39:16;;;;;;;18.30;13.30;;;;;;;4.19;46.91;94851.31;5073862;28;20189;-66
2022/01/30 09:41:44;;;;;;;17.27;14.27;;;;;;;4.30;45.68;94838.16;5074064;28;20220;-66
2022/01/30 09:44:11;;;;;;;15.00;13.55;;;;;;;4.24;46.60;94834.75;5073747;28;20211;-66
2022/01/30 09:46:42;;;;;;;14.90;13.45;;;;;;;4.46;46.85;94822.09;5073859;28;20196;-66
2022/01/30 09:49:09;;;;;;;16.38;14.05;;;;;;;4.69;46.03;94817.31;5074704;28;20575;-66
2022/01/30 09:51:38;;;;;;;15.25;13.70;;;;;;;4.85;45.96;94818.41;5075045;28;20206;-66
2022/01/30 09:54:05;;;;;;;14.88;13.35;;;;;;;4.78;46.50;94810.69;5078209;28;20193;-66
2022/01/30 09:56:32;;;;;;;14.80;13.20;;;;;;;4.87;45.79;94804.44;5078486;28;20201;-66
2022/01/30 09:58:59;;;;;;;17.02;14.35;;;;;;;5.13;45.47;94788.00;5078230;28;20193;-66
2022/01/30 10:01:30;;;;;;;17.17;15.48;;;;;;;5.43;45.32;94789.69;5078685;28;20201;-66
2022/01/30 10:03:59;;;;;;;17.52;15.45;;;;;;;5.66;44.35;94792.16;5078044;28;20254;-66
2022/01/30 10:06:31;;;;;;;17.38;14.80;;;;;;;6.03;44.01;94772.22;5079066;28;20208;-66
2022/01/30 10:09:00;;;;;;;16.08;14.35;;;;;;;6.34;42.82;94768.31;5078054;28;20291;-66
2022/01/30 10:11:47;;;;;;;18.13;16.23;;;;;;;6.45;42.05;94772.25;5077922;28;20602;-67
2022/01/30 10:14:15;;;;;;;15.20;13.60;;;;;;;6.39;41.92;94773.59;5078052;28;20254;-67
2022/01/30 10:16:43;;;;;;;16.10;14.13;;;;;;;6.44;42.02;94767.13;5078891;28;20186;-67
2022/01/30 10:19:17;;;;;;;15.82;14.13;;;;;;;6.01;41.78;94785.41;5078458;28;20196;-66
2022/01/30 10:21:44;;;;;;;18.77;14.63;;;;;;;5.99;43.27;94790.44;5078262;28;20220;-66
2022/01/30 10:24:19;;;;;;;17.17;14.70;;;;;;;6.43;43.37;94798.38;5078330;28;20178;-66
2022/01/30 10:26:46;;;;;;;16.60;14.95;;;;;;;6.89;42.19;94799.31;5077740;28;20617;-66
2022/01/30 10:29:21;;;;;;;15.80;14.10;;;;;;;6.94;41.21;94783.47;5077540;28;20208;-66
2022/01/30 10:31:58;;;;;;;17.02;14.30;;;;;;;6.93;41.17;94770.06;5078304;28;20519;-66
2022/01/30 10:34:27;;;;;;;18.00;15.63;;;;;;;7.17;41.08;94758.41;5077647;28;20197;-66
2022/01/30 10:37:13;;;;;;;19.05;14.63;;;;;;;7.29;39.35;94754.88;5078379;28;20244;-66
2022/01/30 10:39:57;;;;;;;16.80;15.20;;;;;;;7.42;40.13;94764.75;5077012;28;20221;-66
2022/01/30 10:42:39;;;;;;;17.05;13.77;;;;;;;7.36;39.44;94763.34;5077193;28;20240;-66
2022/01/30 10:45:11;;;;;;;15.48;13.95;;;;;;;7.42;40.02;94751.81;5078186;28;20201;-66
2022/01/30 10:47:38;;;;;;;15.02;13.38;;;;;;;7.56;40.51;94729.56;5078078;28;20182;-66
2022/01/30 10:50:17;;;;;;;21.02;15.05;;;;;;;7.56;39.64;94717.78;5078152;28;20185;-66
2022/01/30 10:52:53;;;;;;;15.27;13.68;;;;;;;7.73;38.93;94714.78;5077274;28;20193;-66
2022/01/30 10:55:32;;;;;;;15.45;13.65;;;;;;;8.32;39.47;94717.03;5077961;28;20231;-66
2022/01/30 10:57:59;;;;;;;15.48;13.73;;;;;;;8.79;37.66;94721.94;5077751;28;20196;-66
2022/01/30 11:00:37;;;;;;;14.90;13.40;;;;;;;8.27;37.09;94716.44;5078230;28;20217;-66
2022/01/30 11:03:04;;;;;;;16.10;14.48;;;;;;;7.98;38.15;94701.84;5077617;28;20208;-66
2022/01/30 11:05:34;;;;;;;15.63;13.70;;;;;;;7.92;38.54;94703.25;5077243;28;20189;-66
2022/01/30 11:08:01;;;;;;;18.10;13.65;;;;;;;8.21;38.02;94707.66;5078164;28;20181;-66
2022/01/30 11:10:30;;;;;;;15.80;13.57;;;;;;;8.43;38.04;94698.94;5076745;28;20295;-66
2022/01/30 11:13:08;;;;;;;16.00;13.88;;;;;;;8.54;37.49;94673.72;5077889;28;20182;-66
2022/01/30 11:15:37;;;;;;;17.40;13.38;;;;;;;8.24;36.77;94654.75;5076490;28;20225;-66
2022/01/30 11:18:05;;;;;;;17.92;12.88;;;;;;;8.05;37.99;94657.31;5077206;28;20652;-66
2022/01/30 11:20:34;;;;;;;16.10;14.27;;;;;;;7.94;38.35;94663.28;5077563;28;20186;-66
2022/01/30 11:23:02;;;;;;;15.35;13.75;;;;;;;8.31;37.58;94663.19;5077552;28;20211;-66
2022/01/30 11:25:33;;;;;;;14.77;13.38;;;;;;;8.56;38.48;94663.16;5077482;28;20186;-66
2022/01/30 11:28:01;;;;;;;16.55;13.85;;;;;;;8.83;38.48;94665.09;5076208;28;20240;-66
2022/01/30 11:30:28;;;;;;;26.23;21.45;;;;;;;8.90;37.42;94670.00;5077414;28;20182;-66
2022/01/30 11:32:55;;;;;;;33.95;27.55;;;;;;;8.70;37.67;94669.03;5076995;28;20186;-66
2022/01/30 11:35:22;;;;;;;43.38;35.30;;;;;;;8.39;38.13;94665.06;5076136;28;20235;-66
2022/01/30 11:37:51;;;;;;;38.75;33.67;;;;;;;8.31;38.84;94662.41;5075988;28;20211;-66
2022/01/30 11:40:19;;;;;;;35.28;31.50;;;;;;;8.23;38.27;94655.09;5077369;28;20201;-66
2022/01/30 11:42:48;;;;;;;40.67;36.28;;;;;;;8.11;39.20;94648.50;5077239;28;20223;-66
2022/01/30 11:45:18;;;;;;;42.72;38.20;;;;;;;8.07;39.21;94636.63;5076826;28;20212;-66
2022/01/30 11:47:48;;;;;;;42.50;37.83;;;;;;;8.17;40.12;94627.88;5076904;28;20199;-66
2022/01/30 11:50:18;;;;;;;43.13;36.88;;;;;;;8.55;39.03;94631.31;5076080;28;20193;-66
2022/01/30 11:53:03;;;;;;;42.15;37.30;;;;;;;8.62;38.70;94624.06;5075962;28;20643;-66
2022/01/30 11:55:56;;;;;;;52.40;42.75;;;;;;;8.89;38.24;94621.63;5076177;28;20287;-66
2022/01/30 11:58:47;;;;;;;38.58;33.13;;;;;;;9.01;38.11;94618.03;5075873;28;20201;-66
2022/01/30 12:01:35;;;;;;;31.00;27.60;;;;;;;9.15;37.39;94610.13;5075806;28;20236;-66
2022/01/30 12:04:04;;;;;;;30.30;25.55;;;;;;;9.12;37.28;94617.13;5075686;28;20565;-66